e-Mail: Password: Lost your password? Click here. - Register a new user

c h a v e z j u a r e z . c o m

Weather - Tiempo - Wetter - Temps

METAR DATA MMMX (Mexico City)

Mexico City / Licenci, Mexico (MMMX) 19-26N 099-06W
Aug 14, 2020 - 03:43 AM EDT / 2020.08.14 0743 UTC
Wind: from the W (280 degrees) at 6 MPH (5 KT):0
Visibility: 8 mile(s):0
Sky conditions: partly cloudy
Temperature: 60 F (16 C)
Dew Point: 50 F (10 C)
Relative Humidity: 67%
Pressure (altimeter): 30.34 in. Hg (1027 hPa)
ob: MMMX 140743Z 28005KT 8SM FEW020 SCT100 16/10 A3034 NOSIG RMK 8/570 CI HZY
cycle: 7

Mexico City

St. Prex




Current weather alarms for Switzerland


www.wetteralarm.ch